sensor_id;sensor_type;location;lat;lon;timestamp;temperature;humidity
42141;DHT22;27809;51.864;5.646;2024-02-16T00:00:26;11.20;94.90
42141;DHT22;27809;51.864;5.646;2024-02-16T00:02:52;11.20;95.30
42141;DHT22;27809;51.864;5.646;2024-02-16T00:05:18;11.20;95.70
42141;DHT22;27809;51.864;5.646;2024-02-16T00:07:43;11.20;95.80
42141;DHT22;27809;51.864;5.646;2024-02-16T00:10:09;11.20;96.00
42141;DHT22;27809;51.864;5.646;2024-02-16T00:12:36;11.20;96.30
42141;DHT22;27809;51.864;5.646;2024-02-16T00:15:02;11.20;96.40
42141;DHT22;27809;51.864;5.646;2024-02-16T00:17:28;11.10;96.20
42141;DHT22;27809;51.864;5.646;2024-02-16T00:19:57;11.10;96.40
42141;DHT22;27809;51.864;5.646;2024-02-16T00:22:23;11.10;96.50
42141;DHT22;27809;51.864;5.646;2024-02-16T00:24:49;11.10;96.50
42141;DHT22;27809;51.864;5.646;2024-02-16T00:27:15;11.00;96.80
42141;DHT22;27809;51.864;5.646;2024-02-16T00:29:41;11.00;97.00
42141;DHT22;27809;51.864;5.646;2024-02-16T00:32:07;11.00;97.20
42141;DHT22;27809;51.864;5.646;2024-02-16T00:34:35;11.00;97.40
42141;DHT22;27809;51.864;5.646;2024-02-16T00:37:00;11.00;97.30
42141;DHT22;27809;51.864;5.646;2024-02-16T00:39:26;11.00;97.40
42141;DHT22;27809;51.864;5.646;2024-02-16T00:41:52;10.90;97.40
42141;DHT22;27809;51.864;5.646;2024-02-16T00:44:18;10.90;97.40
42141;DHT22;27809;51.864;5.646;2024-02-16T00:46:44;10.90;97.30
42141;DHT22;27809;51.864;5.646;2024-02-16T00:49:10;10.90;97.60
42141;DHT22;27809;51.864;5.646;2024-02-16T00:51:36;10.90;97.10
42141;DHT22;27809;51.864;5.646;2024-02-16T00:54:02;10.80;97.20
42141;DHT22;27809;51.864;5.646;2024-02-16T00:56:29;10.80;97.30
42141;DHT22;27809;51.864;5.646;2024-02-16T00:58:55;10.80;97.70
42141;DHT22;27809;51.864;5.646;2024-02-16T01:01:20;10.80;98.00
42141;DHT22;27809;51.864;5.646;2024-02-16T01:03:48;10.80;98.00
42141;DHT22;27809;51.864;5.646;2024-02-16T01:06:14;10.80;98.20
42141;DHT22;27809;51.864;5.646;2024-02-16T01:08:39;10.70;98.60
42141;DHT22;27809;51.864;5.646;2024-02-16T01:11:05;10.80;98.90
42141;DHT22;27809;51.864;5.646;2024-02-16T01:13:30;10.80;99.10
42141;DHT22;27809;51.864;5.646;2024-02-16T01:15:57;10.80;99.30
42141;DHT22;27809;51.864;5.646;2024-02-16T01:18:22;10.90;99.50
42141;DHT22;27809;51.864;5.646;2024-02-16T01:20:48;10.90;99.70
42141;DHT22;27809;51.864;5.646;2024-02-16T01:23:13;10.90;99.70
42141;DHT22;27809;51.864;5.646;2024-02-16T01:25:39;10.90;99.50
42141;DHT22;27809;51.864;5.646;2024-02-16T01:28:05;10.90;99.30
42141;DHT22;27809;51.864;5.646;2024-02-16T01:30:30;10.90;99.20
42141;DHT22;27809;51.864;5.646;2024-02-16T01:32:56;10.90;98.70
42141;DHT22;27809;51.864;5.646;2024-02-16T01:35:21;10.90;98.60
42141;DHT22;27809;51.864;5.646;2024-02-16T01:37:47;10.80;98.80
42141;DHT22;27809;51.864;5.646;2024-02-16T01:40:13;10.80;98.80
42141;DHT22;27809;51.864;5.646;2024-02-16T01:42:47;10.90;98.60
42141;DHT22;27809;51.864;5.646;2024-02-16T01:45:13;10.80;98.60
42141;DHT22;27809;51.864;5.646;2024-02-16T01:47:39;10.80;98.60
42141;DHT22;27809;51.864;5.646;2024-02-16T01:50:06;10.80;98.70
42141;DHT22;27809;51.864;5.646;2024-02-16T01:52:33;10.80;98.70
42141;DHT22;27809;51.864;5.646;2024-02-16T01:54:59;10.80;98.80
42141;DHT22;27809;51.864;5.646;2024-02-16T01:57:28;10.90;99.20
42141;DHT22;27809;51.864;5.646;2024-02-16T01:59:53;10.90;99.30
42141;DHT22;27809;51.864;5.646;2024-02-16T02:02:19;10.90;99.20
42141;DHT22;27809;51.864;5.646;2024-02-16T02:04:45;10.90;99.20
42141;DHT22;27809;51.864;5.646;2024-02-16T02:07:12;10.90;99.00
42141;DHT22;27809;51.864;5.646;2024-02-16T02:09:37;10.90;98.90
42141;DHT22;27809;51.864;5.646;2024-02-16T02:12:03;10.90;98.50
42141;DHT22;27809;51.864;5.646;2024-02-16T02:14:29;10.90;98.30
42141;DHT22;27809;51.864;5.646;2024-02-16T02:16:54;10.90;98.40
42141;DHT22;27809;51.864;5.646;2024-02-16T02:19:20;10.90;98.40
42141;DHT22;27809;51.864;5.646;2024-02-16T02:21:46;10.90;98.40
42141;DHT22;27809;51.864;5.646;2024-02-16T02:24:11;10.90;98.70
42141;DHT22;27809;51.864;5.646;2024-02-16T02:26:38;11.00;98.60
42141;DHT22;27809;51.864;5.646;2024-02-16T02:29:03;11.00;98.50
42141;DHT22;27809;51.864;5.646;2024-02-16T02:31:30;11.00;98.60
42141;DHT22;27809;51.864;5.646;2024-02-16T02:33:56;11.00;98.70
42141;DHT22;27809;51.864;5.646;2024-02-16T02:36:21;11.10;98.80
42141;DHT22;27809;51.864;5.646;2024-02-16T02:38:47;11.10;98.70
42141;DHT22;27809;51.864;5.646;2024-02-16T02:41:13;11.10;98.10
42141;DHT22;27809;51.864;5.646;2024-02-16T02:43:41;11.10;97.40
42141;DHT22;27809;51.864;5.646;2024-02-16T02:46:07;11.10;96.70
42141;DHT22;27809;51.864;5.646;2024-02-16T02:48:33;11.10;96.10
42141;DHT22;27809;51.864;5.646;2024-02-16T02:50:59;11.10;95.90
42141;DHT22;27809;51.864;5.646;2024-02-16T02:53:28;11.10;95.50
42141;DHT22;27809;51.864;5.646;2024-02-16T02:55:54;11.10;95.60
42141;DHT22;27809;51.864;5.646;2024-02-16T02:58:20;11.10;95.70
42141;DHT22;27809;51.864;5.646;2024-02-16T03:00:45;11.10;95.50
42141;DHT22;27809;51.864;5.646;2024-02-16T03:03:11;11.10;95.50
42141;DHT22;27809;51.864;5.646;2024-02-16T03:05:36;11.10;95.30
42141;DHT22;27809;51.864;5.646;2024-02-16T03:08:03;11.10;95.60
42141;DHT22;27809;51.864;5.646;2024-02-16T03:10:29;11.10;95.30
42141;DHT22;27809;51.864;5.646;2024-02-16T03:13:00;11.20;95.30
42141;DHT22;27809;51.864;5.646;2024-02-16T03:15:26;11.10;94.80
42141;DHT22;27809;51.864;5.646;2024-02-16T03:17:51;11.10;94.70
42141;DHT22;27809;51.864;5.646;2024-02-16T03:20:17;11.10;94.60
42141;DHT22;27809;51.864;5.646;2024-02-16T03:22:43;11.10;94.50
42141;DHT22;27809;51.864;5.646;2024-02-16T03:25:09;11.10;94.50
42141;DHT22;27809;51.864;5.646;2024-02-16T03:27:34;11.10;94.40
42141;DHT22;27809;51.864;5.646;2024-02-16T03:30:00;11.10;94.10
42141;DHT22;27809;51.864;5.646;2024-02-16T03:32:27;11.10;93.80
42141;DHT22;27809;51.864;5.646;2024-02-16T03:34:52;11.10;93.60
42141;DHT22;27809;51.864;5.646;2024-02-16T03:37:18;11.10;93.80
42141;DHT22;27809;51.864;5.646;2024-02-16T03:39:43;11.00;93.30
42141;DHT22;27809;51.864;5.646;2024-02-16T03:42:09;11.00;93.20
42141;DHT22;27809;51.864;5.646;2024-02-16T03:44:35;11.00;92.90
42141;DHT22;27809;51.864;5.646;2024-02-16T03:47:00;10.90;92.80
42141;DHT22;27809;51.864;5.646;2024-02-16T03:49:26;11.00;92.80
42141;DHT22;27809;51.864;5.646;2024-02-16T03:51:54;11.00;92.60
42141;DHT22;27809;51.864;5.646;2024-02-16T03:54:20;10.90;92.10
42141;DHT22;27809;51.864;5.646;2024-02-16T03:56:45;10.90;92.10
42141;DHT22;27809;51.864;5.646;2024-02-16T03:59:11;10.90;91.80
42141;DHT22;27809;51.864;5.646;2024-02-16T04:01:36;10.80;91.50
42141;DHT22;27809;51.864;5.646;2024-02-16T04:04:02;10.80;91.20
42141;DHT22;27809;51.864;5.646;2024-02-16T04:06:28;10.80;91.00
42141;DHT22;27809;51.864;5.646;2024-02-16T04:08:54;10.80;91.50
42141;DHT22;27809;51.864;5.646;2024-02-16T04:11:21;10.70;91.80
42141;DHT22;27809;51.864;5.646;2024-02-16T04:13:47;10.70;92.10
42141;DHT22;27809;51.864;5.646;2024-02-16T04:16:13;10.80;92.20
42141;DHT22;27809;51.864;5.646;2024-02-16T04:18:39;10.80;92.30
42141;DHT22;27809;51.864;5.646;2024-02-16T04:21:05;10.80;92.50
42141;DHT22;27809;51.864;5.646;2024-02-16T04:23:30;10.80;92.60
42141;DHT22;27809;51.864;5.646;2024-02-16T04:25:56;10.80;92.80
42141;DHT22;27809;51.864;5.646;2024-02-16T04:28:21;10.80;92.90
42141;DHT22;27809;51.864;5.646;2024-02-16T04:30:47;10.80;92.90
42141;DHT22;27809;51.864;5.646;2024-02-16T04:33:13;10.80;92.80
42141;DHT22;27809;51.864;5.646;2024-02-16T04:35:38;10.80;92.90
42141;DHT22;27809;51.864;5.646;2024-02-16T04:38:04;10.80;92.70
42141;DHT22;27809;51.864;5.646;2024-02-16T04:40:35;10.80;92.20
42141;DHT22;27809;51.864;5.646;2024-02-16T04:43:02;10.80;92.30
42141;DHT22;27809;51.864;5.646;2024-02-16T04:45:27;10.70;92.60
42141;DHT22;27809;51.864;5.646;2024-02-16T04:47:55;10.70;92.40
42141;DHT22;27809;51.864;5.646;2024-02-16T04:50:21;10.70;92.70
42141;DHT22;27809;51.864;5.646;2024-02-16T04:52:46;10.80;93.20
42141;DHT22;27809;51.864;5.646;2024-02-16T04:55:12;10.80;93.30
42141;DHT22;27809;51.864;5.646;2024-02-16T04:57:38;10.80;93.60
42141;DHT22;27809;51.864;5.646;2024-02-16T05:00:04;10.80;93.50
42141;DHT22;27809;51.864;5.646;2024-02-16T05:02:30;10.80;93.70
42141;DHT22;27809;51.864;5.646;2024-02-16T05:04:55;10.80;93.80
42141;DHT22;27809;51.864;5.646;2024-02-16T05:07:21;10.80;93.60
42141;DHT22;27809;51.864;5.646;2024-02-16T05:09:47;10.70;93.70
42141;DHT22;27809;51.864;5.646;2024-02-16T05:12:12;10.70;93.90
42141;DHT22;27809;51.864;5.646;2024-02-16T05:14:38;10.70;94.00
42141;DHT22;27809;51.864;5.646;2024-02-16T05:17:03;10.80;94.30
42141;DHT22;27809;51.864;5.646;2024-02-16T05:19:32;10.80;94.90
42141;DHT22;27809;51.864;5.646;2024-02-16T05:21:58;10.80;94.90
42141;DHT22;27809;51.864;5.646;2024-02-16T05:24:24;10.80;95.30
42141;DHT22;27809;51.864;5.646;2024-02-16T05:26:49;10.80;95.50
42141;DHT22;27809;51.864;5.646;2024-02-16T05:29:16;10.90;95.70
42141;DHT22;27809;51.864;5.646;2024-02-16T05:31:42;10.90;96.30
42141;DHT22;27809;51.864;5.646;2024-02-16T05:34:07;10.90;96.60
42141;DHT22;27809;51.864;5.646;2024-02-16T05:36:33;11.00;96.70
42141;DHT22;27809;51.864;5.646;2024-02-16T05:39:01;11.00;96.60
42141;DHT22;27809;51.864;5.646;2024-02-16T05:41:35;11.10;96.20
42141;DHT22;27809;51.864;5.646;2024-02-16T05:44:02;11.10;96.20
42141;DHT22;27809;51.864;5.646;2024-02-16T05:46:28;11.10;95.90
42141;DHT22;27809;51.864;5.646;2024-02-16T05:48:53;11.10;95.80
42141;DHT22;27809;51.864;5.646;2024-02-16T05:51:20;11.10;95.60
42141;DHT22;27809;51.864;5.646;2024-02-16T05:53:46;11.10;95.60
42141;DHT22;27809;51.864;5.646;2024-02-16T05:56:12;11.00;95.70
42141;DHT22;27809;51.864;5.646;2024-02-16T05:58:38;11.10;95.90
42141;DHT22;27809;51.864;5.646;2024-02-16T06:01:03;11.10;95.70
42141;DHT22;27809;51.864;5.646;2024-02-16T06:03:29;11.00;95.30
42141;DHT22;27809;51.864;5.646;2024-02-16T06:05:54;11.00;95.00
42141;DHT22;27809;51.864;5.646;2024-02-16T06:08:20;10.90;94.90
42141;DHT22;27809;51.864;5.646;2024-02-16T06:10:46;10.90;94.80
42141;DHT22;27809;51.864;5.646;2024-02-16T06:13:19;10.90;95.10
42141;DHT22;27809;51.864;5.646;2024-02-16T06:15:46;10.90;95.50
42141;DHT22;27809;51.864;5.646;2024-02-16T06:18:12;10.80;95.80
42141;DHT22;27809;51.864;5.646;2024-02-16T06:20:38;10.80;96.40
42141;DHT22;27809;51.864;5.646;2024-02-16T06:23:03;10.90;97.30
42141;DHT22;27809;51.864;5.646;2024-02-16T06:25:29;10.90;98.40
42141;DHT22;27809;51.864;5.646;2024-02-16T06:27:54;11.00;98.90
42141;DHT22;27809;51.864;5.646;2024-02-16T06:30:20;11.10;99.30
42141;DHT22;27809;51.864;5.646;2024-02-16T06:32:46;11.10;99.50
42141;DHT22;27809;51.864;5.646;2024-02-16T06:35:11;11.10;99.80
42141;DHT22;27809;51.864;5.646;2024-02-16T06:37:37;11.20;99.90
42141;DHT22;27809;51.864;5.646;2024-02-16T06:40:05;11.30;99.90
42141;DHT22;27809;51.864;5.646;2024-02-16T06:42:31;11.30;99.90
42141;DHT22;27809;51.864;5.646;2024-02-16T06:44:57;11.30;99.90
42141;DHT22;27809;51.864;5.646;2024-02-16T06:47:22;11.40;99.90
42141;DHT22;27809;51.864;5.646;2024-02-16T06:49:50;11.30;99.80
42141;DHT22;27809;51.864;5.646;2024-02-16T06:52:16;11.40;99.50
42141;DHT22;27809;51.864;5.646;2024-02-16T06:54:41;11.30;98.90
42141;DHT22;27809;51.864;5.646;2024-02-16T06:57:07;11.30;98.80
42141;DHT22;27809;51.864;5.646;2024-02-16T06:59:33;11.30;99.10
42141;DHT22;27809;51.864;5.646;2024-02-16T07:01:58;11.30;99.20
42141;DHT22;27809;51.864;5.646;2024-02-16T07:04:24;11.30;99.00
42141;DHT22;27809;51.864;5.646;2024-02-16T07:06:49;11.30;99.20
42141;DHT22;27809;51.864;5.646;2024-02-16T07:09:15;11.30;99.70
42141;DHT22;27809;51.864;5.646;2024-02-16T07:11:41;11.40;99.90
42141;DHT22;27809;51.864;5.646;2024-02-16T07:14:07;11.40;99.90
42141;DHT22;27809;51.864;5.646;2024-02-16T07:16:33;11.50;99.90
42141;DHT22;27809;51.864;5.646;2024-02-16T07:18:59;11.50;99.90
42141;DHT22;27809;51.864;5.646;2024-02-16T07:21:25;11.50;99.90
42141;DHT22;27809;51.864;5.646;2024-02-16T07:23:52;11.60;99.90
42141;DHT22;27809;51.864;5.646;2024-02-16T07:26:18;11.50;99.90
42141;DHT22;27809;51.864;5.646;2024-02-16T07:28:43;11.60;99.90
42141;DHT22;27809;51.864;5.646;2024-02-16T07:31:09;11.60;99.90
42141;DHT22;27809;51.864;5.646;2024-02-16T07:33:36;11.70;99.90
42141;DHT22;27809;51.864;5.646;2024-02-16T07:36:02;11.70;99.90
42141;DHT22;27809;51.864;5.646;2024-02-16T07:38:28;11.80;99.90
42141;DHT22;27809;51.864;5.646;2024-02-16T07:40:54;11.80;99.90
42141;DHT22;27809;51.864;5.646;2024-02-16T07:43:19;11.90;99.90
42141;DHT22;27809;51.864;5.646;2024-02-16T07:45:47;11.90;99.90
42141;DHT22;27809;51.864;5.646;2024-02-16T07:48:12;11.90;99.90
42141;DHT22;27809;51.864;5.646;2024-02-16T07:50:38;11.90;99.90
42141;DHT22;27809;51.864;5.646;2024-02-16T07:53:03;11.90;99.90
42141;DHT22;27809;51.864;5.646;2024-02-16T07:55:29;12.00;99.90
42141;DHT22;27809;51.864;5.646;2024-02-16T07:57:55;11.90;99.90
42141;DHT22;27809;51.864;5.646;2024-02-16T08:00:20;12.00;99.90
42141;DHT22;27809;51.864;5.646;2024-02-16T08:02:46;12.10;99.90
42141;DHT22;27809;51.864;5.646;2024-02-16T08:05:12;12.10;99.90
42141;DHT22;27809;51.864;5.646;2024-02-16T08:07:41;12.10;99.90
42141;DHT22;27809;51.864;5.646;2024-02-16T08:10:10;12.20;99.90
42141;DHT22;27809;51.864;5.646;2024-02-16T08:12:36;12.20;99.90
42141;DHT22;27809;51.864;5.646;2024-02-16T08:15:06;12.30;99.90
42141;DHT22;27809;51.864;5.646;2024-02-16T08:17:33;12.30;99.90
42141;DHT22;27809;51.864;5.646;2024-02-16T08:19:59;12.40;99.90
42141;DHT22;27809;51.864;5.646;2024-02-16T08:22:24;12.50;99.90
42141;DHT22;27809;51.864;5.646;2024-02-16T08:24:50;12.50;99.90
42141;DHT22;27809;51.864;5.646;2024-02-16T08:27:16;12.60;99.90
42141;DHT22;27809;51.864;5.646;2024-02-16T08:29:42;12.60;99.90
42141;DHT22;27809;51.864;5.646;2024-02-16T08:32:09;12.70;99.90
42141;DHT22;27809;51.864;5.646;2024-02-16T08:34:36;12.90;99.90
42141;DHT22;27809;51.864;5.646;2024-02-16T08:37:03;12.90;99.90
42141;DHT22;27809;51.864;5.646;2024-02-16T08:39:30;13.00;99.90
42141;DHT22;27809;51.864;5.646;2024-02-16T08:41:58;13.00;99.90
42141;DHT22;27809;51.864;5.646;2024-02-16T08:44:25;13.00;99.90
42141;DHT22;27809;51.864;5.646;2024-02-16T08:46:51;13.10;99.90
42141;DHT22;27809;51.864;5.646;2024-02-16T08:49:18;13.10;99.90
42141;DHT22;27809;51.864;5.646;2024-02-16T08:51:44;13.10;99.90
42141;DHT22;27809;51.864;5.646;2024-02-16T08:54:10;13.10;99.90
42141;DHT22;27809;51.864;5.646;2024-02-16T08:56:35;13.20;99.90
42141;DHT22;27809;51.864;5.646;2024-02-16T08:59:02;13.10;99.90
42141;DHT22;27809;51.864;5.646;2024-02-16T09:01:32;13.20;99.90
42141;DHT22;27809;51.864;5.646;2024-02-16T09:03:58;13.20;99.90
42141;DHT22;27809;51.864;5.646;2024-02-16T09:06:23;13.20;99.90
42141;DHT22;27809;51.864;5.646;2024-02-16T09:08:49;13.20;99.90
42141;DHT22;27809;51.864;5.646;2024-02-16T09:11:15;13.30;99.90
42141;DHT22;27809;51.864;5.646;2024-02-16T09:13:40;13.30;99.90
42141;DHT22;27809;51.864;5.646;2024-02-16T09:16:06;13.40;99.90
42141;DHT22;27809;51.864;5.646;2024-02-16T09:18:33;13.40;99.90
42141;DHT22;27809;51.864;5.646;2024-02-16T09:20:59;13.40;99.90
42141;DHT22;27809;51.864;5.646;2024-02-16T09:23:25;13.40;99.90
42141;DHT22;27809;51.864;5.646;2024-02-16T09:25:51;13.40;99.90
42141;DHT22;27809;51.864;5.646;2024-02-16T09:28:17;13.50;99.90
42141;DHT22;27809;51.864;5.646;2024-02-16T09:30:46;13.50;99.90
42141;DHT22;27809;51.864;5.646;2024-02-16T09:33:12;13.60;99.90
42141;DHT22;27809;51.864;5.646;2024-02-16T09:35:39;13.60;99.90
42141;DHT22;27809;51.864;5.646;2024-02-16T09:38:05;13.60;99.70
42141;DHT22;27809;51.864;5.646;2024-02-16T09:40:30;13.60;99.30
42141;DHT22;27809;51.864;5.646;2024-02-16T09:42:56;13.60;99.20
42141;DHT22;27809;51.864;5.646;2024-02-16T09:45:22;13.70;99.70
42141;DHT22;27809;51.864;5.646;2024-02-16T09:47:50;13.70;99.60
42141;DHT22;27809;51.864;5.646;2024-02-16T09:50:17;13.80;99.90
42141;DHT22;27809;51.864;5.646;2024-02-16T09:52:47;14.10;99.90
42141;DHT22;27809;51.864;5.646;2024-02-16T09:55:14;14.30;99.90
42141;DHT22;27809;51.864;5.646;2024-02-16T09:57:40;14.90;99.90
42141;DHT22;27809;51.864;5.646;2024-02-16T10:00:06;15.50;99.90
42141;DHT22;27809;51.864;5.646;2024-02-16T10:02:44;15.50;95.00
42141;DHT22;27809;51.864;5.646;2024-02-16T10:05:20;15.30;88.40
42141;DHT22;27809;51.864;5.646;2024-02-16T10:07:47;15.20;82.80
42141;DHT22;27809;51.864;5.646;2024-02-16T10:10:28;15.10;79.50
42141;DHT22;27809;51.864;5.646;2024-02-16T10:13:02;14.90;77.20
42141;DHT22;27809;51.864;5.646;2024-02-16T10:15:30;14.80;77.10
42141;DHT22;27809;51.864;5.646;2024-02-16T10:18:05;14.60;77.50
42141;DHT22;27809;51.864;5.646;2024-02-16T10:20:32;14.50;77.70
42141;DHT22;27809;51.864;5.646;2024-02-16T10:23:11;14.40;78.40
42141;DHT22;27809;51.864;5.646;2024-02-16T10:25:38;14.40;79.20
42141;DHT22;27809;51.864;5.646;2024-02-16T10:28:07;14.30;80.20
42141;DHT22;27809;51.864;5.646;2024-02-16T10:30:38;14.30;80.80
42141;DHT22;27809;51.864;5.646;2024-02-16T10:33:05;14.20;81.00
42141;DHT22;27809;51.864;5.646;2024-02-16T10:35:36;14.20;81.60
42141;DHT22;27809;51.864;5.646;2024-02-16T10:38:03;14.20;82.30
42141;DHT22;27809;51.864;5.646;2024-02-16T10:40:38;14.10;83.30
42141;DHT22;27809;51.864;5.646;2024-02-16T10:43:05;14.10;84.80
42141;DHT22;27809;51.864;5.646;2024-02-16T10:45:35;14.20;87.80
42141;DHT22;27809;51.864;5.646;2024-02-16T10:48:05;14.30;86.90
42141;DHT22;27809;51.864;5.646;2024-02-16T10:50:33;14.20;86.90
42141;DHT22;27809;51.864;5.646;2024-02-16T10:53:09;14.20;87.30
42141;DHT22;27809;51.864;5.646;2024-02-16T10:55:36;14.20;87.80
42141;DHT22;27809;51.864;5.646;2024-02-16T10:58:02;14.10;88.30
42141;DHT22;27809;51.864;5.646;2024-02-16T11:00:27;14.10;88.90
42141;DHT22;27809;51.864;5.646;2024-02-16T11:02:56;14.10;89.80
42141;DHT22;27809;51.864;5.646;2024-02-16T11:05:39;14.20;91.30
42141;DHT22;27809;51.864;5.646;2024-02-16T11:08:13;14.20;90.90
42141;DHT22;27809;51.864;5.646;2024-02-16T11:10:39;14.20;91.40
42141;DHT22;27809;51.864;5.646;2024-02-16T11:13:05;14.10;91.00
42141;DHT22;27809;51.864;5.646;2024-02-16T11:15:31;14.00;91.10
42141;DHT22;27809;51.864;5.646;2024-02-16T11:18:01;14.00;91.40
42141;DHT22;27809;51.864;5.646;2024-02-16T11:20:27;13.90;92.00
42141;DHT22;27809;51.864;5.646;2024-02-16T11:22:53;13.80;92.80
42141;DHT22;27809;51.864;5.646;2024-02-16T11:25:30;13.80;93.70
42141;DHT22;27809;51.864;5.646;2024-02-16T11:27:56;13.70;94.90
42141;DHT22;27809;51.864;5.646;2024-02-16T11:30:21;13.70;96.00
42141;DHT22;27809;51.864;5.646;2024-02-16T11:32:47;13.60;97.10
42141;DHT22;27809;51.864;5.646;2024-02-16T11:35:13;13.60;98.10
42141;DHT22;27809;51.864;5.646;2024-02-16T11:37:38;13.60;99.10
42141;DHT22;27809;51.864;5.646;2024-02-16T11:40:05;13.60;99.90
42141;DHT22;27809;51.864;5.646;2024-02-16T11:42:33;13.60;99.90
42141;DHT22;27809;51.864;5.646;2024-02-16T11:45:00;13.50;99.90
42141;DHT22;27809;51.864;5.646;2024-02-16T11:47:26;13.50;99.90
42141;DHT22;27809;51.864;5.646;2024-02-16T11:50:08;13.40;99.90
42141;DHT22;27809;51.864;5.646;2024-02-16T11:52:38;13.40;99.90
42141;DHT22;27809;51.864;5.646;2024-02-16T11:55:04;13.40;99.90
42141;DHT22;27809;51.864;5.646;2024-02-16T11:57:34;13.50;99.90
42141;DHT22;27809;51.864;5.646;2024-02-16T12:00:01;13.50;99.90
42141;DHT22;27809;51.864;5.646;2024-02-16T12:02:29;13.50;99.90
42141;DHT22;27809;51.864;5.646;2024-02-16T12:04:58;13.60;99.90
42141;DHT22;27809;51.864;5.646;2024-02-16T12:07:27;13.50;99.90
42141;DHT22;27809;51.864;5.646;2024-02-16T12:09:57;13.50;99.90
42141;DHT22;27809;51.864;5.646;2024-02-16T12:12:24;13.60;99.90
42141;DHT22;27809;51.864;5.646;2024-02-16T12:14:49;13.60;99.90
42141;DHT22;27809;51.864;5.646;2024-02-16T12:17:15;13.60;99.90
42141;DHT22;27809;51.864;5.646;2024-02-16T12:19:45;13.50;99.90
42141;DHT22;27809;51.864;5.646;2024-02-16T12:22:10;13.50;99.90
42141;DHT22;27809;51.864;5.646;2024-02-16T12:24:37;13.50;99.90
42141;DHT22;27809;51.864;5.646;2024-02-16T12:27:03;13.50;99.90
42141;DHT22;27809;51.864;5.646;2024-02-16T12:29:28;13.40;99.90
42141;DHT22;27809;51.864;5.646;2024-02-16T12:31:54;13.40;99.90
42141;DHT22;27809;51.864;5.646;2024-02-16T12:34:19;13.40;99.90
42141;DHT22;27809;51.864;5.646;2024-02-16T12:36:45;13.30;99.90
42141;DHT22;27809;51.864;5.646;2024-02-16T12:39:10;13.30;99.90
42141;DHT22;27809;51.864;5.646;2024-02-16T12:41:41;13.30;99.90
42141;DHT22;27809;51.864;5.646;2024-02-16T12:44:08;13.30;99.90
42141;DHT22;27809;51.864;5.646;2024-02-16T12:46:33;13.20;99.90
42141;DHT22;27809;51.864;5.646;2024-02-16T12:48:59;13.20;99.90
42141;DHT22;27809;51.864;5.646;2024-02-16T12:51:25;13.20;99.90
42141;DHT22;27809;51.864;5.646;2024-02-16T12:53:51;13.20;99.90
42141;DHT22;27809;51.864;5.646;2024-02-16T12:56:16;13.20;99.90
42141;DHT22;27809;51.864;5.646;2024-02-16T12:58:42;13.20;99.90
42141;DHT22;27809;51.864;5.646;2024-02-16T13:01:08;13.10;99.90
42141;DHT22;27809;51.864;5.646;2024-02-16T13:03:34;13.10;99.90
42141;DHT22;27809;51.864;5.646;2024-02-16T13:06:00;13.10;99.90
42141;DHT22;27809;51.864;5.646;2024-02-16T13:08:27;13.10;99.90
42141;DHT22;27809;51.864;5.646;2024-02-16T13:10:52;13.30;99.90
42141;DHT22;27809;51.864;5.646;2024-02-16T13:13:18;13.30;99.90
42141;DHT22;27809;51.864;5.646;2024-02-16T13:15:43;13.30;99.90
42141;DHT22;27809;51.864;5.646;2024-02-16T13:18:09;13.30;99.90
42141;DHT22;27809;51.864;5.646;2024-02-16T13:20:35;13.30;99.90
42141;DHT22;27809;51.864;5.646;2024-02-16T13:23:01;13.30;99.90
42141;DHT22;27809;51.864;5.646;2024-02-16T13:25:26;13.20;99.90
42141;DHT22;27809;51.864;5.646;2024-02-16T13:27:52;13.20;99.90
42141;DHT22;27809;51.864;5.646;2024-02-16T13:30:18;13.30;99.90
42141;DHT22;27809;51.864;5.646;2024-02-16T13:32:43;13.30;99.90
42141;DHT22;27809;51.864;5.646;2024-02-16T13:35:09;13.30;99.90
42141;DHT22;27809;51.864;5.646;2024-02-16T13:37:35;13.30;99.90
42141;DHT22;27809;51.864;5.646;2024-02-16T13:40:02;13.30;99.90
42141;DHT22;27809;51.864;5.646;2024-02-16T13:42:32;13.30;99.90
42141;DHT22;27809;51.864;5.646;2024-02-16T13:44:58;13.40;99.90
42141;DHT22;27809;51.864;5.646;2024-02-16T13:47:23;13.50;99.90
42141;DHT22;27809;51.864;5.646;2024-02-16T13:49:49;13.40;99.90
42141;DHT22;27809;51.864;5.646;2024-02-16T13:52:16;13.40;99.90
42141;DHT22;27809;51.864;5.646;2024-02-16T13:54:41;13.50;99.90
42141;DHT22;27809;51.864;5.646;2024-02-16T13:57:07;13.50;99.90
42141;DHT22;27809;51.864;5.646;2024-02-16T13:59:32;13.40;99.90
42141;DHT22;27809;51.864;5.646;2024-02-16T14:01:59;13.50;99.90
42141;DHT22;27809;51.864;5.646;2024-02-16T14:04:26;13.50;99.90
42141;DHT22;27809;51.864;5.646;2024-02-16T14:06:52;13.50;99.90
42141;DHT22;27809;51.864;5.646;2024-02-16T14:09:18;13.40;99.90
42141;DHT22;27809;51.864;5.646;2024-02-16T14:11:47;13.40;99.90
42141;DHT22;27809;51.864;5.646;2024-02-16T14:14:12;13.40;99.90
42141;DHT22;27809;51.864;5.646;2024-02-16T14:16:38;13.40;99.90
42141;DHT22;27809;51.864;5.646;2024-02-16T14:19:05;13.40;99.90
42141;DHT22;27809;51.864;5.646;2024-02-16T14:21:31;13.40;99.90
42141;DHT22;27809;51.864;5.646;2024-02-16T14:23:58;13.40;99.90
42141;DHT22;27809;51.864;5.646;2024-02-16T14:26:24;13.50;99.90
42141;DHT22;27809;51.864;5.646;2024-02-16T14:28:50;13.50;99.90
42141;DHT22;27809;51.864;5.646;2024-02-16T14:31:15;13.40;99.90
42141;DHT22;27809;51.864;5.646;2024-02-16T14:33:42;13.40;99.90
42141;DHT22;27809;51.864;5.646;2024-02-16T14:36:09;13.40;99.90
42141;DHT22;27809;51.864;5.646;2024-02-16T14:38:35;13.40;99.90
42141;DHT22;27809;51.864;5.646;2024-02-16T14:41:01;13.40;99.90
42141;DHT22;27809;51.864;5.646;2024-02-16T14:43:29;13.40;99.90
42141;DHT22;27809;51.864;5.646;2024-02-16T14:45:57;13.40;99.90
42141;DHT22;27809;51.864;5.646;2024-02-16T14:48:23;13.40;99.90
42141;DHT22;27809;51.864;5.646;2024-02-16T14:50:53;13.40;99.90
42141;DHT22;27809;51.864;5.646;2024-02-16T14:53:20;13.40;99.90
42141;DHT22;27809;51.864;5.646;2024-02-16T14:55:46;13.40;99.90
42141;DHT22;27809;51.864;5.646;2024-02-16T14:58:12;13.40;99.90
42141;DHT22;27809;51.864;5.646;2024-02-16T15:00:38;13.40;99.90
42141;DHT22;27809;51.864;5.646;2024-02-16T15:03:04;13.40;99.90
42141;DHT22;27809;51.864;5.646;2024-02-16T15:05:30;13.40;99.90
42141;DHT22;27809;51.864;5.646;2024-02-16T15:07:55;13.40;99.90
42141;DHT22;27809;51.864;5.646;2024-02-16T15:10:21;13.40;99.90
42141;DHT22;27809;51.864;5.646;2024-02-16T15:12:47;13.40;99.90
42141;DHT22;27809;51.864;5.646;2024-02-16T15:15:12;13.40;99.90
42141;DHT22;27809;51.864;5.646;2024-02-16T15:17:39;13.50;99.90
42141;DHT22;27809;51.864;5.646;2024-02-16T15:20:05;13.40;99.90
42141;DHT22;27809;51.864;5.646;2024-02-16T15:22:32;13.50;99.90
42141;DHT22;27809;51.864;5.646;2024-02-16T15:24:58;13.40;99.90